Hlavní strana
METAR-TAF:

METAR-TAF

Letiště :

Abidžan, Pobřeží slonoviny

zeměpisná šířka: 05-15N, zeměpisná délka: 003-56W, výška: 7 m

Aktuální stav počasí

Zpráva byla vytvořena před 30 minutami, v 21:30 UTC
Jihojihozápadní vítr 5 kt
Teplota 27°C
Vlhkost vzduchu 94%
Tlak 1011 hPa
Viditelnost: 8000 m
Skoro jasno ve výšce 1200 ft

METAR: DIAP 222130Z 20005KT 8000 FEW012 27/26 Q1011 NOSIG

Čas: 22:00 (22:00 UTC)

Předpověď počasí

Zpráva byla vytvořena před 5 hodinami a 0 minutami, v 17:00 UTC
Předpověď platná od 22 v 18 UTC do 23 v 24 UTC
Západojihozápadní vítr 8 kt
Viditelnost: 7000 m
Skoro jasno ve výšce 1200 ft
Pravděpodobnost 30%
od 23 v 02 UTC do 23 v 08 UTC
vítr z různých směrů 2 kt
Viditelnost: 2000 m
Oblačno až skoro zataženo ve výšce 1000 ft
kouřmo
Pravděpodobnost 30% :
Dočasný
od 23 v 12 UTC do 23 v 18 UTC
Oblačno až skoro zataženo ve výšce 1200 ft

TAF: DIAP 221700Z 2218/2324 24008KT 7000 FEW012 PROB30 2302/2308 VRB02KT 2000 BR BKN010 PROB30 TEMPO 2312/2318 BKN012

Stav a předpovědi počasí z více než 4 000 letišť (zprávy METAR a TAF).

Červené a žluté tečky na mapě představují dostupné meteorologické stanice.

Když kurzor umístíte na tečku, zobrazí se název stanice.

Pak kliknutím zobrazíte stav a předpověď počasí.

Chcete-li změnit mapu, kliknutím na zelené tlačítko se znaménkem +mapu přiblížíte, kliknutím na zelené tlačítko se znaménkem – mapu oddálíte a kliknutím na zelené šipky přejdete na sousední mapy.


METAR-TAF: